DLH1109 LOWS-EDDF
Flight info
| Callsign | DLH1109 |
|---|---|
| Flight time | 0h 41m |
| Altitude | 30000 |
| Route | INROM2A INROM DCT SIMBA Y700 NENUM T161 DEBHI DEBHI1B |
| Aircraft | A319/M-SDE2E3FGIJ1LORWXYZ/HB1 |
Departure
| Time | 2026-05-04 17:54 |
|---|---|
| Airport | Salzburg Airport (LOWS) |
Arrival
| Time | 2026-05-04 18:35 |
|---|---|
| Airport | Frankfurt Main Airport (EDDF) |
| Time | Latitude | Longitude | Altitude | Speed | Heading |
|---|---|---|---|---|---|
| 2026-05-04 16:30 | 47.79094 | 12.99962 | 1422 ft | 0 kts | 280° |
| 2026-05-04 17:47 | 47.79096 | 12.99958 | 1422 ft | 2 kts | 293° |
| 2026-05-04 17:47 | 47.79111 | 12.99955 | 1422 ft | 2 kts | 23° |
| 2026-05-04 17:47 | 47.79113 | 12.99983 | 1422 ft | 3 kts | 99° |
| 2026-05-04 17:47 | 47.79108 | 13.00022 | 1422 ft | 5 kts | 100° |
| 2026-05-04 17:48 | 47.79088 | 13.00072 | 1422 ft | 7 kts | 144° |
| 2026-05-04 17:48 | 47.79029 | 13.00107 | 1422 ft | 10 kts | 157° |
| 2026-05-04 17:48 | 47.78965 | 13.00154 | 1422 ft | 11 kts | 135° |
| 2026-05-04 17:48 | 47.78955 | 13.00265 | 1422 ft | 11 kts | 92° |
| 2026-05-04 17:49 | 47.78934 | 13.00377 | 1420 ft | 13 kts | 140° |
| 2026-05-04 17:49 | 47.78849 | 13.00431 | 1420 ft | 13 kts | 157° |
| 2026-05-04 17:49 | 47.78761 | 13.00488 | 1421 ft | 14 kts | 156° |
| 2026-05-04 17:49 | 47.78669 | 13.00546 | 1421 ft | 14 kts | 157° |
| 2026-05-04 17:50 | 47.78577 | 13.00604 | 1422 ft | 15 kts | 157° |
| 2026-05-04 17:50 | 47.78484 | 13.00662 | 1422 ft | 13 kts | 156° |
| 2026-05-04 17:50 | 47.78396 | 13.00718 | 1422 ft | 14 kts | 157° |
| 2026-05-04 17:50 | 47.78310 | 13.00771 | 1421 ft | 12 kts | 158° |
| 2026-05-04 17:51 | 47.78250 | 13.00809 | 1421 ft | 9 kts | 154° |
| 2026-05-04 17:51 | 47.78213 | 13.00853 | 1420 ft | 0 kts | 135° |
| 2026-05-04 17:52 | 47.78211 | 13.00856 | 1420 ft | 2 kts | 135° |
| 2026-05-04 17:52 | 47.78196 | 13.00879 | 1420 ft | 6 kts | 130° |
| 2026-05-04 17:52 | 47.78182 | 13.00970 | 1418 ft | 11 kts | 85° |
| 2026-05-04 17:53 | 47.78208 | 13.01071 | 1419 ft | 7 kts | 63° |
| 2026-05-04 17:53 | 47.78246 | 13.01079 | 1420 ft | 7 kts | 335° |
| 2026-05-04 17:53 | 47.78386 | 13.00990 | 1417 ft | 56 kts | 337° |
| 2026-05-04 17:53 | 47.78970 | 13.00624 | 1420 ft | 124 kts | 337° |
| 2026-05-04 17:54 | 47.79923 | 13.00024 | 1644 ft | 155 kts | 338° |
| 2026-05-04 17:54 | 47.80902 | 12.99402 | 2351 ft | 152 kts | 338° |
| 2026-05-04 17:54 | 47.81920 | 12.98904 | 2880 ft | 163 kts | 358° |
| 2026-05-04 17:54 | 47.83065 | 12.99310 | 3318 ft | 179 kts | 30° |
| 2026-05-04 17:55 | 47.84121 | 13.00435 | 3774 ft | 196 kts | 38° |
| 2026-05-04 17:55 | 47.84888 | 13.01278 | 4005 ft | 216 kts | 37° |
| 2026-05-04 17:55 | 47.86166 | 13.02679 | 4554 ft | 239 kts | 37° |
| 2026-05-04 17:55 | 47.87569 | 13.04185 | 5296 ft | 256 kts | 36° |
| 2026-05-04 17:56 | 47.89072 | 13.05789 | 5915 ft | 278 kts | 36° |
| 2026-05-04 17:56 | 47.90710 | 13.07556 | 6430 ft | 303 kts | 36° |
| 2026-05-04 17:56 | 47.92485 | 13.09485 | 6893 ft | 327 kts | 36° |
| 2026-05-04 17:56 | 47.94499 | 13.11176 | 7598 ft | 339 kts | 19° |
| 2026-05-04 17:57 | 47.96839 | 13.11717 | 8440 ft | 344 kts | 356° |
| 2026-05-04 17:57 | 47.99213 | 13.11162 | 9353 ft | 347 kts | 347° |
| 2026-05-04 17:57 | 48.01594 | 13.10455 | 10249 ft | 352 kts | 347° |
| 2026-05-04 17:57 | 48.04014 | 13.09727 | 11090 ft | 357 kts | 347° |
| 2026-05-04 17:58 | 48.06464 | 13.08987 | 11922 ft | 362 kts | 347° |
| 2026-05-04 17:58 | 48.08958 | 13.08235 | 12741 ft | 368 kts | 347° |
| 2026-05-04 17:58 | 48.11469 | 13.07484 | 13625 ft | 370 kts | 347° |
| 2026-05-04 17:58 | 48.14006 | 13.06729 | 14394 ft | 374 kts | 347° |
| 2026-05-04 17:59 | 48.16566 | 13.05969 | 15146 ft | 377 kts | 347° |
| 2026-05-04 17:59 | 48.19157 | 13.05199 | 15886 ft | 381 kts | 347° |
| 2026-05-04 17:59 | 48.24410 | 13.03634 | 17339 ft | 389 kts | 347° |
| 2026-05-04 18:00 | 48.27109 | 13.02829 | 18087 ft | 393 kts | 346° |
| 2026-05-04 18:00 | 48.29803 | 13.02023 | 18732 ft | 396 kts | 346° |
| 2026-05-04 18:00 | 48.32514 | 13.01213 | 19397 ft | 399 kts | 346° |
| 2026-05-04 18:00 | 48.35251 | 13.00390 | 20062 ft | 402 kts | 346° |
| 2026-05-04 18:01 | 48.38034 | 12.99551 | 20742 ft | 404 kts | 346° |
| 2026-05-04 18:01 | 48.40801 | 12.98715 | 21411 ft | 406 kts | 346° |
| 2026-05-04 18:01 | 48.43659 | 12.97853 | 22077 ft | 409 kts | 346° |
| 2026-05-04 18:02 | 48.49142 | 12.95725 | 23309 ft | 411 kts | 334° |
| 2026-05-04 18:02 | 48.51629 | 12.93620 | 23820 ft | 410 kts | 322° |
| 2026-05-04 18:02 | 48.53781 | 12.90812 | 24293 ft | 410 kts | 311° |
| 2026-05-04 18:02 | 48.55527 | 12.87407 | 24764 ft | 410 kts | 300° |
| 2026-05-04 18:03 | 48.56802 | 12.83507 | 25217 ft | 411 kts | 290° |
| 2026-05-04 18:03 | 48.57835 | 12.79529 | 25673 ft | 413 kts | 289° |
| 2026-05-04 18:03 | 48.58898 | 12.75422 | 26136 ft | 416 kts | 289° |
| 2026-05-04 18:03 | 48.59950 | 12.71345 | 26591 ft | 418 kts | 289° |
| 2026-05-04 18:04 | 48.60940 | 12.67196 | 27042 ft | 420 kts | 284° |
| 2026-05-04 18:04 | 48.61703 | 12.62932 | 27482 ft | 422 kts | 283° |
| 2026-05-04 18:04 | 48.63160 | 12.54276 | 28362 ft | 427 kts | 282° |
| 2026-05-04 18:05 | 48.63879 | 12.49901 | 28771 ft | 430 kts | 282° |
| 2026-05-04 18:05 | 48.64601 | 12.45496 | 29181 ft | 433 kts | 282° |
| 2026-05-04 18:05 | 48.65329 | 12.41073 | 29581 ft | 435 kts | 282° |
| 2026-05-04 18:05 | 48.66064 | 12.36613 | 29883 ft | 438 kts | 282° |
| 2026-05-04 18:06 | 48.67528 | 12.27824 | 29931 ft | 426 kts | 282° |
| 2026-05-04 18:06 | 48.68969 | 12.19094 | 29937 ft | 424 kts | 282° |
| 2026-05-04 18:07 | 48.70384 | 12.10426 | 29944 ft | 424 kts | 282° |
| 2026-05-04 18:07 | 48.71801 | 12.01751 | 29941 ft | 424 kts | 282° |
| 2026-05-04 18:08 | 48.73210 | 11.93077 | 29942 ft | 424 kts | 282° |
| 2026-05-04 18:08 | 48.74609 | 11.84394 | 29926 ft | 424 kts | 282° |
| 2026-05-04 18:09 | 48.79394 | 11.68166 | 29911 ft | 429 kts | 303° |
| 2026-05-04 18:10 | 48.82885 | 11.60849 | 29909 ft | 429 kts | 303° |
| 2026-05-04 18:10 | 48.86405 | 11.53487 | 29913 ft | 429 kts | 303° |
| 2026-05-04 18:11 | 48.89945 | 11.46014 | 29927 ft | 444 kts | 303° |
| 2026-05-04 18:11 | 48.93543 | 11.38382 | 29931 ft | 444 kts | 303° |
| 2026-05-04 18:12 | 48.97153 | 11.30715 | 29941 ft | 446 kts | 303° |
| 2026-05-04 18:12 | 49.00787 | 11.22976 | 29787 ft | 447 kts | 303° |
| 2026-05-04 18:13 | 49.02591 | 11.19128 | 29457 ft | 447 kts | 303° |
| 2026-05-04 18:13 | 49.04394 | 11.15274 | 29120 ft | 448 kts | 303° |
| 2026-05-04 18:13 | 49.08016 | 11.07521 | 28465 ft | 450 kts | 302° |
| 2026-05-04 18:14 | 49.09830 | 11.03626 | 28153 ft | 451 kts | 302° |
| 2026-05-04 18:14 | 49.11649 | 10.99719 | 27842 ft | 452 kts | 302° |
| 2026-05-04 18:14 | 49.13463 | 10.95815 | 27532 ft | 453 kts | 302° |
| 2026-05-04 18:15 | 49.17118 | 10.87922 | 26916 ft | 452 kts | 302° |
| 2026-05-04 18:15 | 49.20711 | 10.80155 | 26307 ft | 446 kts | 302° |
| 2026-05-04 18:15 | 49.22498 | 10.76271 | 26008 ft | 444 kts | 302° |
| 2026-05-04 18:16 | 49.24292 | 10.72362 | 25711 ft | 443 kts | 302° |
| 2026-05-04 18:16 | 49.26061 | 10.68514 | 25419 ft | 441 kts | 302° |
| 2026-05-04 18:16 | 49.27828 | 10.64666 | 25128 ft | 440 kts | 302° |
| 2026-05-04 18:17 | 49.31332 | 10.57012 | 24608 ft | 438 kts | 302° |
| 2026-05-04 18:17 | 49.33071 | 10.53204 | 24370 ft | 437 kts | 302° |
| 2026-05-04 18:17 | 49.36550 | 10.45579 | 23874 ft | 434 kts | 302° |
| 2026-05-04 18:18 | 49.38284 | 10.41798 | 23369 ft | 432 kts | 302° |
| 2026-05-04 18:18 | 49.40013 | 10.38035 | 22921 ft | 430 kts | 302° |
| 2026-05-04 18:18 | 49.41748 | 10.34246 | 22479 ft | 427 kts | 302° |
| 2026-05-04 18:18 | 49.43452 | 10.30513 | 22049 ft | 425 kts | 302° |
| 2026-05-04 18:19 | 49.46800 | 10.23149 | 21195 ft | 420 kts | 302° |
| 2026-05-04 18:19 | 49.48474 | 10.19459 | 20768 ft | 417 kts | 302° |
| 2026-05-04 18:19 | 49.50129 | 10.15805 | 20345 ft | 414 kts | 302° |
| 2026-05-04 18:20 | 49.51767 | 10.12183 | 19937 ft | 412 kts | 302° |
| 2026-05-04 18:20 | 49.53400 | 10.08569 | 19517 ft | 409 kts | 302° |
| 2026-05-04 18:20 | 49.55016 | 10.04989 | 19096 ft | 407 kts | 302° |
| 2026-05-04 18:20 | 49.56102 | 10.02575 | 18823 ft | 405 kts | 302° |
| 2026-05-04 18:21 | 49.57706 | 9.99008 | 18412 ft | 403 kts | 302° |
| 2026-05-04 18:21 | 49.59312 | 9.95428 | 17965 ft | 400 kts | 302° |
| 2026-05-04 18:21 | 49.60889 | 9.91911 | 17555 ft | 398 kts | 302° |
| 2026-05-04 18:21 | 49.62461 | 9.88403 | 17156 ft | 396 kts | 302° |
| 2026-05-04 18:22 | 49.64019 | 9.84936 | 16748 ft | 393 kts | 302° |
| 2026-05-04 18:22 | 49.65573 | 9.81471 | 16356 ft | 391 kts | 302° |
| 2026-05-04 18:22 | 49.67115 | 9.78023 | 15944 ft | 389 kts | 302° |
| 2026-05-04 18:22 | 49.68666 | 9.74550 | 15554 ft | 386 kts | 302° |
| 2026-05-04 18:23 | 49.70242 | 9.71283 | 15239 ft | 386 kts | 309° |
| 2026-05-04 18:23 | 49.72083 | 9.68245 | 14990 ft | 386 kts | 311° |
| 2026-05-04 18:23 | 49.73921 | 9.65244 | 14725 ft | 384 kts | 311° |
| 2026-05-04 18:23 | 49.75748 | 9.62250 | 14463 ft | 382 kts | 310° |
| 2026-05-04 18:24 | 49.77563 | 9.59241 | 14192 ft | 381 kts | 310° |
| 2026-05-04 18:24 | 49.79355 | 9.56246 | 13808 ft | 378 kts | 310° |
| 2026-05-04 18:24 | 49.81137 | 9.53253 | 13386 ft | 376 kts | 310° |
| 2026-05-04 18:24 | 49.82906 | 9.50277 | 12967 ft | 374 kts | 310° |
| 2026-05-04 18:25 | 49.84663 | 9.47313 | 12553 ft | 372 kts | 310° |
| 2026-05-04 18:25 | 49.86408 | 9.44368 | 12145 ft | 370 kts | 310° |
| 2026-05-04 18:25 | 49.88148 | 9.41438 | 11738 ft | 369 kts | 310° |
| 2026-05-04 18:25 | 49.89880 | 9.38516 | 11339 ft | 367 kts | 310° |
| 2026-05-04 18:26 | 49.91598 | 9.35615 | 10937 ft | 365 kts | 309° |
| 2026-05-04 18:26 | 49.93324 | 9.32697 | 10549 ft | 359 kts | 309° |
| 2026-05-04 18:26 | 49.94972 | 9.29910 | 10167 ft | 349 kts | 309° |
| 2026-05-04 18:26 | 49.96591 | 9.27166 | 9777 ft | 340 kts | 309° |
| 2026-05-04 18:27 | 49.98168 | 9.24495 | 9355 ft | 332 kts | 309° |
| 2026-05-04 18:27 | 49.99713 | 9.21876 | 8931 ft | 326 kts | 309° |
| 2026-05-04 18:27 | 50.01231 | 9.19300 | 8528 ft | 321 kts | 309° |
| 2026-05-04 18:27 | 50.02736 | 9.16738 | 8116 ft | 319 kts | 310° |
| 2026-05-04 18:28 | 50.04230 | 9.14190 | 7715 ft | 318 kts | 310° |
| 2026-05-04 18:28 | 50.05708 | 9.11668 | 7321 ft | 317 kts | 310° |
| 2026-05-04 18:28 | 50.07195 | 9.09130 | 6925 ft | 315 kts | 310° |
| 2026-05-04 18:28 | 50.08671 | 9.06611 | 6533 ft | 314 kts | 310° |
| 2026-05-04 18:29 | 50.10124 | 9.04019 | 6124 ft | 309 kts | 306° |
| 2026-05-04 18:29 | 50.11364 | 9.01399 | 5725 ft | 306 kts | 304° |
| 2026-05-04 18:29 | 50.12595 | 8.98702 | 5325 ft | 306 kts | 304° |
| 2026-05-04 18:29 | 50.13677 | 8.95927 | 5036 ft | 303 kts | 291° |
| 2026-05-04 18:30 | 50.13399 | 8.90058 | 5005 ft | 261 kts | 244° |
| 2026-05-04 18:30 | 50.12691 | 8.87530 | 5005 ft | 242 kts | 246° |
| 2026-05-04 18:30 | 50.12107 | 8.85141 | 4844 ft | 233 kts | 249° |
| 2026-05-04 18:31 | 50.11556 | 8.82790 | 4554 ft | 230 kts | 249° |
| 2026-05-04 18:31 | 50.11007 | 8.80455 | 4229 ft | 229 kts | 249° |
| 2026-05-04 18:31 | 50.10459 | 8.78130 | 3907 ft | 229 kts | 249° |
| 2026-05-04 18:31 | 50.09915 | 8.75826 | 3579 ft | 222 kts | 249° |
| 2026-05-04 18:32 | 50.09391 | 8.73609 | 3273 ft | 212 kts | 250° |
| 2026-05-04 18:32 | 50.08899 | 8.71535 | 2972 ft | 198 kts | 250° |
| 2026-05-04 18:32 | 50.08433 | 8.69566 | 2727 ft | 192 kts | 250° |
| 2026-05-04 18:32 | 50.07976 | 8.67639 | 2439 ft | 188 kts | 251° |
| 2026-05-04 18:33 | 50.07524 | 8.65735 | 2171 ft | 187 kts | 251° |
| 2026-05-04 18:33 | 50.07077 | 8.63853 | 1901 ft | 182 kts | 251° |
| 2026-05-04 18:33 | 50.06647 | 8.62046 | 1652 ft | 173 kts | 251° |
| 2026-05-04 18:33 | 50.06242 | 8.60347 | 1398 ft | 163 kts | 251° |
| 2026-05-04 18:34 | 50.05855 | 8.58718 | 1170 ft | 155 kts | 251° |
| 2026-05-04 18:34 | 50.05488 | 8.57186 | 948 ft | 147 kts | 252° |
| 2026-05-04 18:34 | 50.05144 | 8.55727 | 723 ft | 142 kts | 251° |
| 2026-05-04 18:34 | 50.04802 | 8.54319 | 537 ft | 137 kts | 252° |
| 2026-05-04 18:35 | 50.04480 | 8.52948 | 369 ft | 134 kts | 252° |
| 2026-05-04 18:35 | 50.04206 | 8.51795 | 333 ft | 77 kts | 249° |
| 2026-05-04 18:35 | 50.04092 | 8.51321 | 329 ft | 38 kts | 250° |
| 2026-05-04 18:35 | 50.03964 | 8.50996 | 326 ft | 30 kts | 225° |
| 2026-05-04 18:36 | 50.03845 | 8.50842 | 327 ft | 15 kts | 213° |
| 2026-05-04 18:36 | 50.03781 | 8.50889 | 331 ft | 10 kts | 103° |
| 2026-05-04 18:36 | 50.03800 | 8.51004 | 331 ft | 15 kts | 70° |
| 2026-05-04 18:36 | 50.03843 | 8.51183 | 334 ft | 18 kts | 70° |
| 2026-05-04 18:37 | 50.03889 | 8.51374 | 333 ft | 20 kts | 69° |
| 2026-05-04 18:37 | 50.03941 | 8.51592 | 333 ft | 22 kts | 70° |
| 2026-05-04 18:37 | 50.03996 | 8.51820 | 333 ft | 23 kts | 70° |
| 2026-05-04 18:37 | 50.04051 | 8.52049 | 339 ft | 23 kts | 69° |
| 2026-05-04 18:38 | 50.04105 | 8.52278 | 353 ft | 22 kts | 69° |
| 2026-05-04 18:38 | 50.04157 | 8.52494 | 350 ft | 21 kts | 70° |
| 2026-05-04 18:38 | 50.04210 | 8.52712 | 351 ft | 21 kts | 69° |
| 2026-05-04 18:38 | 50.04260 | 8.52924 | 355 ft | 21 kts | 69° |
| 2026-05-04 18:39 | 50.04310 | 8.53130 | 358 ft | 20 kts | 70° |
| 2026-05-04 18:39 | 50.04353 | 8.53312 | 366 ft | 16 kts | 70° |
| 2026-05-04 18:39 | 50.04391 | 8.53480 | 375 ft | 18 kts | 77° |
| 2026-05-04 18:39 | 50.04406 | 8.53673 | 376 ft | 18 kts | 84° |
| 2026-05-04 18:40 | 50.04420 | 8.53879 | 376 ft | 20 kts | 84° |
| 2026-05-04 18:40 | 50.04434 | 8.54095 | 375 ft | 21 kts | 84° |
| 2026-05-04 18:40 | 50.04450 | 8.54326 | 374 ft | 22 kts | 83° |
| 2026-05-04 18:40 | 50.04433 | 8.54580 | 367 ft | 26 kts | 114° |
| 2026-05-04 18:41 | 50.04300 | 8.54781 | 358 ft | 26 kts | 159° |
| 2026-05-04 18:41 | 50.04153 | 8.54862 | 358 ft | 17 kts | 160° |
| 2026-05-04 18:41 | 50.04046 | 8.54924 | 353 ft | 16 kts | 159° |
| 2026-05-04 18:41 | 50.03942 | 8.54986 | 355 ft | 17 kts | 160° |
| 2026-05-04 18:42 | 50.03855 | 8.55050 | 353 ft | 14 kts | 132° |
| 2026-05-04 18:42 | 50.03867 | 8.55189 | 354 ft | 15 kts | 68° |
| 2026-05-04 18:42 | 50.03901 | 8.55332 | 355 ft | 9 kts | 69° |
| 2026-05-04 18:42 | 50.03913 | 8.55380 | 355 ft | 3 kts | 69° |
| 2026-05-04 18:43 | 50.03926 | 8.55436 | 353 ft | 9 kts | 70° |
| 2026-05-04 18:43 | 50.03957 | 8.55565 | 355 ft | 14 kts | 69° |
| 2026-05-04 18:43 | 50.03993 | 8.55717 | 349 ft | 15 kts | 70° |
| 2026-05-04 18:43 | 50.04030 | 8.55872 | 358 ft | 16 kts | 70° |
| 2026-05-04 18:44 | 50.04070 | 8.56038 | 359 ft | 16 kts | 70° |
| 2026-05-04 18:44 | 50.04083 | 8.56093 | 357 ft | 17 kts | 69° |
| 2026-05-04 18:44 | 50.04154 | 8.56384 | 355 ft | 18 kts | 71° |
| 2026-05-04 18:44 | 50.04195 | 8.56563 | 355 ft | 18 kts | 70° |
| 2026-05-04 18:45 | 50.04236 | 8.56733 | 360 ft | 14 kts | 69° |
| 2026-05-04 18:45 | 50.04303 | 8.56814 | 360 ft | 13 kts | 11° |
| 2026-05-04 18:45 | 50.04406 | 8.56844 | 360 ft | 16 kts | 8° |
| 2026-05-04 18:45 | 50.04523 | 8.56880 | 359 ft | 17 kts | 13° |
| 2026-05-04 18:46 | 50.04620 | 8.56916 | 356 ft | 11 kts | 13° |
| 2026-05-04 18:46 | 50.04680 | 8.56925 | 356 ft | 9 kts | 318° |
| 2026-05-04 18:46 | 50.04701 | 8.56857 | 356 ft | 3 kts | 294° |
| 2026-05-04 18:46 | 50.04705 | 8.56843 | 359 ft | 0 kts | 294° |